Time;durP1;ratioP1;P1;durP2;ratioP2;P2;SDS_P1;SDS_P2;PMS_P1;PMS_P2;Temp;Humidity;BMP_temperature;BMP_pressure;BME280_temperature;BME280_humidity;BME280_pressure;Samples;Min_cycle;Max_cycle;Signal;HPM_P1;HPM_P2
2021/06/05 00:02:18;;;;;;;9.53;3.65;;;;;;;14.91;100.00;99362.68;1791266;78;20873;-69
2021/06/05 00:04:52;;;;;;;10.28;4.10;;;;;;;14.87;100.00;99368.51;1789415;78;21189;-67
2021/06/05 00:07:24;;;;;;;5.90;3.30;;;;;;;14.85;100.00;99359.70;1779473;79;21362;-67
2021/06/05 00:10:13;;;;;;;9.28;3.67;;;;;;;14.84;100.00;99361.94;1789681;78;21431;-67
2021/06/05 00:12:59;;;;;;;4.83;3.12;;;;;;;14.83;100.00;99364.16;1790308;78;21442;-67
2021/06/05 00:15:36;;;;;;;5.80;3.42;;;;;;;14.83;100.00;99361.51;1768698;80;21431;-68
2021/06/05 00:18:23;;;;;;;6.53;3.37;;;;;;;14.84;100.00;99352.64;1777131;79;21323;-69
2021/06/05 00:20:58;;;;;;;8.00;3.10;;;;;;;14.84;100.00;99357.95;1790310;78;20876;-69
2021/06/05 00:23:36;;;;;;;;;;;;;;;14.83;100.00;99357.52;1789092;79;21467;-68
2021/06/05 00:26:16;;;;;;;4.65;3.20;;;;;;;14.82;100.00;99357.56;1790129;79;20425;-69
2021/06/05 00:28:55;;;;;;;9.25;3.45;;;;;;;14.79;100.00;99354.06;1791674;78;20923;-69
2021/06/05 00:31:55;;;;;;;3.70;3.12;;;;;;;14.78;100.00;99358.07;1790903;78;21328;-68
2021/06/05 00:34:24;;;;;;;4.58;3.22;;;;;;;14.82;100.00;99352.24;1788449;78;20915;-69
2021/06/05 00:36:54;;;;;;;7.00;3.25;;;;;;;14.82;100.00;99347.81;1790142;80;21304;-68
2021/06/05 00:39:26;;;;;;;8.75;3.12;;;;;;;14.79;100.00;99348.75;1791260;80;20919;-69
2021/06/05 00:42:07;;;;;;;4.03;2.87;;;;;;;14.78;100.00;99345.67;1791269;78;21518;-68
2021/06/05 00:44:47;;;;;;;5.75;3.10;;;;;;;14.75;100.00;99346.18;1784593;79;21391;-69
2021/06/05 00:47:13;;;;;;;4.30;3.20;;;;;;;14.73;100.00;99342.23;1781918;79;21363;-69
2021/06/05 00:50:02;;;;;;;5.65;3.02;;;;;;;14.69;100.00;99335.69;1775748;79;21402;-69
2021/06/05 00:52:33;;;;;;;6.97;3.77;;;;;;;14.66;100.00;99341.93;1781332;79;21437;-69
2021/06/05 00:55:07;;;;;;;5.83;3.10;;;;;;;14.64;100.00;99346.36;1783330;79;21491;-68
2021/06/05 00:57:42;;;;;;;5.92;3.17;;;;;;;14.60;100.00;99339.81;1783676;78;21419;-68
2021/06/05 01:00:43;;;;;;;10.13;3.10;;;;;;;14.60;100.00;99335.38;1752213;80;21808;-68
2021/06/05 01:03:30;;;;;;;6.50;3.30;;;;;;;14.59;100.00;99334.08;1780680;80;21410;-67
2021/06/05 01:06:23;;;;;;;4.00;3.52;;;;;;;14.53;100.00;99325.78;1779874;80;21423;-69
2021/06/05 01:09:25;;;;;;;8.70;3.95;;;;;;;14.47;100.00;99328.11;1782747;79;20956;-69
2021/06/05 01:12:25;;;;;;;7.58;3.00;;;;;;;14.43;100.00;99333.05;1769102;80;21352;-69
2021/06/05 01:14:59;;;;;;;12.05;3.52;;;;;;;14.35;100.00;99336.27;1733416;79;21467;-68
2021/06/05 01:17:42;;;;;;;6.33;3.40;;;;;;;14.32;100.00;99340.75;1759435;80;21381;-69
2021/06/05 01:20:41;;;;;;;11.33;3.12;;;;;;;14.29;100.00;99339.48;1784552;78;21399;-68
2021/06/05 01:23:44;;;;;;;7.42;3.60;;;;;;;14.26;100.00;99341.74;1760250;81;20967;-68
2021/06/05 01:26:43;;;;;;;4.33;3.22;;;;;;;14.20;100.00;99337.87;1740129;82;21430;-68
2021/06/05 01:32:29;;;;;;;5.08;3.22;;;;;;;14.12;100.00;99338.42;1785303;78;21335;-68
2021/06/05 01:34:59;;;;;;;5.75;3.58;;;;;;;14.07;100.00;99333.20;1788702;78;21865;-69
2021/06/05 01:37:59;;;;;;;6.55;3.35;;;;;;;14.05;100.00;99335.45;1788324;78;21442;-69
2021/06/05 01:40:43;;;;;;;4.85;3.05;;;;;;;14.03;100.00;99331.50;1750418;79;21384;-68
2021/06/05 01:43:24;;;;;;;4.80;3.12;;;;;;;14.05;100.00;99331.48;1791489;78;21461;-69
2021/06/05 01:46:01;;;;;;;8.18;4.00;;;;;;;14.05;100.00;99331.48;1790554;78;21442;-67
2021/06/05 01:49:29;;;;;;;4.77;3.50;;;;;;;14.05;100.00;99333.68;1791778;78;21470;-69
2021/06/05 01:51:40;;;;;;;9.33;3.70;;;;;;;14.03;100.00;99338.13;1760113;78;21613;-68
2021/06/05 01:54:25;;;;;;;4.97;3.62;;;;;;;14.03;100.00;99330.63;1759552;79;21311;-68
2021/06/05 01:56:59;;;;;;;13.88;3.45;;;;;;;14.04;100.00;99331.05;1790749;78;21367;-63
2021/06/05 01:59:54;;;;;;;7.95;3.30;;;;;;;14.02;100.00;99324.45;1763394;78;21403;-69
2021/06/05 02:02:44;;;;;;;5.97;3.25;;;;;;;14.02;100.00;99320.92;1782737;80;21446;-68
2021/06/05 02:05:07;;;;;;;15.78;3.87;;;;;;;14.01;100.00;99322.70;1777285;79;21352;-68
2021/06/05 02:07:44;;;;;;;24.55;4.87;;;;;;;14.00;100.00;99317.42;1782631;80;21079;-69
2021/06/05 02:10:37;;;;;;;9.53;3.65;;;;;;;13.99;100.00;99320.97;1760979;78;21415;-69
2021/06/05 02:13:24;;;;;;;10.53;3.77;;;;;;;13.99;100.00;99328.48;1777856;80;21534;-68
2021/06/05 02:16:12;;;;;;;8.78;3.80;;;;;;;13.97;100.00;99323.66;1678467;83;20975;-68
2021/06/05 02:18:58;;;;;;;9.80;3.27;;;;;;;13.96;100.00;99315.27;1751760;80;21491;-68
2021/06/05 02:21:48;;;;;;;7.28;3.42;;;;;;;13.99;100.00;99314.34;1779389;79;21392;-69
2021/06/05 02:24:50;;;;;;;19.48;4.67;;;;;;;13.97;100.00;99318.34;1789925;78;21368;-69
2021/06/05 02:27:28;;;;;;;11.63;4.37;;;;;;;13.97;100.00;99314.82;1733545;79;21466;-69
2021/06/05 02:30:14;;;;;;;6.42;4.35;;;;;;;13.99;100.00;99318.32;1790184;79;21339;-69
2021/06/05 02:32:59;;;;;;;9.43;3.75;;;;;;;14.01;100.00;99313.86;1789225;78;21387;-69
2021/06/05 02:35:45;;;;;;;8.05;4.42;;;;;;;14.03;100.00;99310.73;1773715;79;21427;-69
2021/06/05 02:38:26;;;;;;;8.95;3.60;;;;;;;14.07;100.00;99311.11;1760773;79;20876;-68
2021/06/05 02:40:53;;;;;;;8.85;4.35;;;;;;;14.09;100.00;99307.52;1774294;79;21392;-69
2021/06/05 02:43:35;;;;;;;8.08;4.08;;;;;;;14.12;100.00;99305.27;1760627;81;20928;-69
2021/06/05 02:46:15;;;;;;;8.00;4.17;;;;;;;14.14;100.00;99304.34;1774522;79;20931;-69
2021/06/05 02:48:56;;;;;;;8.35;4.58;;;;;;;14.15;100.00;99303.44;1760626;80;21061;-69
2021/06/05 02:51:35;;;;;;;8.58;4.65;;;;;;;14.17;100.00;99294.99;1774042;79;21376;-70
2021/06/05 02:54:24;;;;;;;6.37;4.62;;;;;;;14.21;100.00;99290.54;1774176;79;20845;-69
2021/06/05 02:56:57;;;;;;;7.30;5.25;;;;;;;14.26;100.00;99285.14;1774079;81;20908;-69
2021/06/05 02:59:36;;;;;;;9.38;6.00;;;;;;;14.28;100.00;99292.63;1774536;79;21416;-68
2021/06/05 03:02:10;;;;;;;10.85;6.60;;;;;;;14.30;100.00;99300.10;1769710;79;21375;-68
2021/06/05 03:04:40;;;;;;;13.48;6.47;;;;;;;14.28;100.00;99290.84;1773767;79;20927;-67
2021/06/05 03:07:16;;;;;;;8.30;6.35;;;;;;;14.29;100.00;99288.61;1774413;79;20988;-67
2021/06/05 03:09:54;;;;;;;9.95;5.83;;;;;;;14.31;100.00;99288.13;1772620;79;21440;-68
2021/06/05 03:12:25;;;;;;;6.80;5.97;;;;;;;14.32;100.00;99288.56;1774238;81;21469;-68
2021/06/05 03:14:54;;;;;;;6.08;4.80;;;;;;;14.34;100.00;99294.71;1773761;79;21113;-70
2021/06/05 03:17:32;;;;;;;9.53;4.55;;;;;;;14.38;100.00;99296.85;1764192;80;20869;-68
2021/06/05 03:20:02;;;;;;;9.30;4.80;;;;;;;14.42;100.00;99291.48;1765968;80;20829;-69
2021/06/05 03:22:34;;;;;;;8.03;4.53;;;;;;;14.44;100.00;99290.13;1765674;80;20920;-69
2021/06/05 03:25:13;;;;;;;7.60;3.80;;;;;;;14.46;100.00;99283.89;1765946;80;21408;-69
2021/06/05 03:27:49;;;;;;;6.75;3.80;;;;;;;14.47;100.00;99288.29;1764278;80;21513;-70
2021/06/05 03:30:22;;;;;;;4.22;3.50;;;;;;;14.47;100.00;99282.98;1739090;82;21446;-68
2021/06/05 03:32:54;;;;;;;6.33;3.25;;;;;;;14.51;100.00;99281.14;1749549;81;20861;-69
2021/06/05 03:35:41;;;;;;;6.90;3.27;;;;;;;14.56;100.00;99285.03;1750603;80;20933;-68
2021/06/05 03:38:17;;;;;;;6.67;3.02;;;;;;;14.61;100.00;99288.02;1772325;79;21396;-69
2021/06/05 03:40:55;;;;;;;5.62;3.42;;;;;;;14.67;100.00;99296.34;1774175;79;21472;-68
2021/06/05 03:43:32;;;;;;;5.75;3.02;;;;;;;14.70;100.00;99288.31;1774394;81;21368;-70
2021/06/05 03:46:02;;;;;;;5.75;3.30;;;;;;;14.74;100.00;99286.02;1773996;79;21412;-70
2021/06/05 03:48:41;;;;;;;5.00;3.50;;;;;;;14.78;100.00;99293.02;1774065;79;20880;-70
2021/06/05 03:51:23;;;;;;;4.40;3.25;;;;;;;14.82;100.00;99286.73;1774489;79;21745;-69
2021/06/05 03:53:53;;;;;;;4.62;3.17;;;;;;;14.88;100.00;99293.23;1770405;79;21470;-69
2021/06/05 03:56:25;;;;;;;9.80;3.45;;;;;;;14.95;100.00;99299.30;1740924;81;20912;-68
2021/06/05 03:58:55;;;;;;;9.93;3.53;;;;;;;15.01;100.00;99285.88;1766571;81;21491;-69
2021/06/05 04:01:26;;;;;;;7.25;3.98;;;;;;;15.06;100.00;99295.95;1766411;80;20888;-69
2021/06/05 04:03:58;;;;;;;6.92;3.40;;;;;;;15.10;100.00;99287.88;1771023;80;21404;-69
2021/06/05 04:06:37;;;;;;;7.72;3.58;;;;;;;15.15;100.00;99289.13;1765876;80;21085;-69
2021/06/05 04:09:01;;;;;;;6.42;3.20;;;;;;;15.22;100.00;99287.21;1763403;80;21333;-69
2021/06/05 04:11:35;;;;;;;3.87;3.08;;;;;;;15.28;100.00;99291.93;1766314;79;21468;-68
2021/06/05 04:14:12;;;;;;;6.00;3.35;;;;;;;15.34;100.00;99294.45;1766860;79;20904;-70
2021/06/05 04:16:50;;;;;;;4.37;3.00;;;;;;;15.41;100.00;99300.04;1742550;81;21410;-69
2021/06/05 04:19:18;;;;;;;4.70;3.05;;;;;;;15.47;100.00;99300.80;1744195;81;21114;-68
2021/06/05 04:21:48;;;;;;;5.60;3.50;;;;;;;15.52;100.00;99300.24;1743729;82;20893;-69
2021/06/05 04:24:19;;;;;;;14.93;3.70;;;;;;;15.56;100.00;99299.26;1761712;81;21419;-69
2021/06/05 04:26:53;;;;;;;7.60;3.62;;;;;;;15.59;100.00;99306.73;1765847;81;20888;-68
2021/06/05 04:29:32;;;;;;;6.28;3.40;;;;;;;15.64;100.00;99304.00;1766180;80;20944;-69
2021/06/05 04:32:07;;;;;;;6.53;3.30;;;;;;;15.68;100.00;99288.39;1765919;80;21788;-69
2021/06/05 04:34:40;;;;;;;7.35;3.30;;;;;;;15.73;100.00;99298.45;1778614;79;21442;-69
2021/06/05 04:37:11;;;;;;;24.72;3.92;;;;;;;15.77;100.00;99295.27;1796307;79;20883;-69
2021/06/05 04:39:44;;;;;;;19.92;4.03;;;;;;;15.78;100.00;99289.91;1796487;78;21403;-69
2021/06/05 04:42:12;;;;;;;12.88;3.70;;;;;;;15.84;100.00;99297.73;1796982;78;20875;-68
2021/06/05 04:44:41;;;;;;;7.08;3.33;;;;;;;15.89;100.00;99289.64;1796622;78;21073;-69
2021/06/05 04:47:10;;;;;;;8.70;3.87;;;;;;;15.90;100.00;99292.26;1796992;78;21462;-69
2021/06/05 04:49:42;;;;;;;9.35;3.60;;;;;;;15.93;100.00;99294.84;1797643;78;21423;-69
2021/06/05 04:52:14;;;;;;;6.90;3.15;;;;;;;15.97;100.00;99290.31;1796928;79;20928;-70
2021/06/05 04:54:42;;;;;;;4.95;3.50;;;;;;;16.02;100.00;99289.73;1796564;78;21409;-69
2021/06/05 04:57:10;;;;;;;7.42;3.47;;;;;;;16.06;100.00;99295.39;1796814;78;21084;-68
2021/06/05 04:59:42;;;;;;;8.10;3.60;;;;;;;16.09;100.00;99291.81;1794401;78;20880;-70
2021/06/05 05:02:13;;;;;;;11.30;3.35;;;;;;;16.13;100.00;99291.70;1796677;78;20930;-70
2021/06/05 05:04:43;;;;;;;5.40;3.60;;;;;;;16.16;100.00;99291.61;1796683;78;21380;-70
2021/06/05 05:07:16;;;;;;;7.83;3.67;;;;;;;16.20;100.00;99285.30;1796743;78;21375;-69
2021/06/05 05:09:51;;;;;;;5.90;3.37;;;;;;;16.25;100.00;99283.84;1796978;78;20871;-69
2021/06/05 05:12:23;;;;;;;5.15;2.72;;;;;;;16.29;100.00;99282.84;1796765;79;20876;-68
2021/06/05 05:14:56;;;;;;;6.47;3.10;;;;;;;16.35;100.00;99279.55;1797178;78;21394;-69
2021/06/05 05:17:35;;;;;;;4.87;2.75;;;;;;;16.41;100.00;99271.85;1796824;78;21506;-69
2021/06/05 05:20:07;;;;;;;6.50;3.37;;;;;;;16.46;100.00;99275.26;1797091;78;21323;-68
2021/06/05 05:22:41;;;;;;;6.50;3.22;;;;;;;16.53;100.00;99271.51;1796366;78;21371;-70
2021/06/05 05:25:16;;;;;;;8.25;3.10;;;;;;;16.63;100.00;99269.48;1796801;78;20924;-70
2021/06/05 05:27:45;;;;;;;5.37;3.00;;;;;;;16.63;100.00;99269.48;1796634;78;21410;-69
2021/06/05 05:30:19;;;;;;;5.53;2.67;;;;;;;16.71;100.00;99281.28;1796692;78;20910;-67
2021/06/05 05:32:48;;;;;;;3.90;3.10;;;;;;;16.75;100.00;99271.83;1795537;78;21432;-67
2021/06/05 05:35:18;;;;;;;7.20;3.27;;;;;;;16.82;100.00;99268.52;1787752;78;20908;-67
2021/06/05 05:37:47;;;;;;;4.17;3.08;;;;;;;16.89;100.00;99268.30;1771643;80;20888;-59
2021/06/05 05:40:17;;;;;;;8.05;3.80;;;;;;;17.03;100.00;99274.58;1766004;80;20928;-60
2021/06/05 05:42:45;;;;;;;5.90;2.72;;;;;;;17.03;100.00;99274.58;1766366;80;20916;-71
2021/06/05 05:45:18;;;;;;;5.55;3.22;;;;;;;17.08;100.00;99279.30;1763935;80;21316;-70
2021/06/05 05:47:52;;;;;;;6.72;3.02;;;;;;;17.13;100.00;99284.49;1766509;80;21931;-69
2021/06/05 05:50:20;;;;;;;6.85;3.17;;;;;;;17.18;100.00;99279.44;1765948;80;20861;-70
2021/06/05 05:52:51;;;;;;;5.20;2.98;;;;;;;17.19;100.00;99281.18;1771856;79;20857;-71
2021/06/05 05:55:24;;;;;;;9.38;3.22;;;;;;;17.20;100.00;99273.59;1773599;79;26952;-70
2021/06/05 05:58:06;;;;;;;9.13;3.05;;;;;;;17.25;100.00;99277.45;1765499;80;21436;-70
2021/06/05 06:00:39;;;;;;;6.60;3.05;;;;;;;17.26;100.00;99277.86;1766042;81;22058;-70
2021/06/05 06:03:11;;;;;;;9.38;3.25;;;;;;;17.28;100.00;99272.02;1769310;80;21427;-71
2021/06/05 06:05:42;;;;;;;7.95;3.40;;;;;;;17.29;100.00;99261.31;1774877;79;20951;-71
2021/06/05 06:08:12;;;;;;;6.08;2.80;;;;;;;17.33;100.00;99259.42;1762923;79;20892;-71
2021/06/05 06:10:41;;;;;;;3.75;2.60;;;;;;;17.42;100.00;99267.13;1751699;79;20972;-71
2021/06/05 06:13:15;;;;;;;4.72;2.90;;;;;;;17.50;100.00;99270.88;1757434;79;21131;-71
2021/06/05 06:15:42;;;;;;;3.87;2.70;;;;;;;17.56;100.00;99267.58;1774487;79;20904;-71
2021/06/05 06:18:16;;;;;;;5.65;3.05;;;;;;;17.63;100.00;99271.80;1765322;81;20888;-70
2021/06/05 06:20:49;;;;;;;8.93;3.50;;;;;;;17.70;100.00;99272.95;1746277;79;20885;-70
2021/06/05 06:23:22;;;;;;;8.13;3.37;;;;;;;17.77;100.00;99269.16;1765070;80;20937;-69
2021/06/05 06:26:00;;;;;;;10.35;3.30;;;;;;;17.83;100.00;99259.62;1765564;80;21964;-73
2021/06/05 06:28:32;;;;;;;9.50;3.98;;;;;;;17.87;100.00;99263.92;1765016;80;21428;-66
2021/06/05 06:31:08;;;;;;;7.60;3.98;;;;;;;17.94;100.00;99266.33;1765983;80;21486;-67
2021/06/05 06:33:42;;;;;;;5.72;3.90;;;;;;;18.01;100.00;99247.01;1773459;79;21436;-68
2021/06/05 06:36:14;;;;;;;7.17;3.45;;;;;;;18.07;100.00;99250.80;1775808;79;21441;-70
2021/06/05 06:38:45;;;;;;;8.43;3.60;;;;;;;18.16;100.00;99239.80;1774458;79;21388;-69
2021/06/05 06:41:18;;;;;;;5.87;3.70;;;;;;;18.24;100.00;99244.40;1768815;79;20916;-67
2021/06/05 06:43:46;;;;;;;5.15;3.52;;;;;;;18.31;100.00;99247.72;1774605;79;21412;-68
2021/06/05 06:46:22;;;;;;;6.60;4.12;;;;;;;18.41;100.00;99242.91;1769466;79;20840;-68
2021/06/05 06:48:54;;;;;;;8.33;4.25;;;;;;;18.51;100.00;99244.36;1763283;79;20931;-68
2021/06/05 06:51:23;;;;;;;;;;;;;;;18.64;100.00;99241.67;1766208;79;21403;-68
2021/06/05 06:53:50;;;;;;;7.10;3.15;;;;;;;18.73;100.00;99241.78;1763207;79;20069;-68
2021/06/05 06:56:19;;;;;;;8.68;3.62;;;;;;;18.80;100.00;99234.81;1763530;79;20919;-69
2021/06/05 06:58:50;;;;;;;11.73;3.52;;;;;;;18.87;100.00;99231.44;1768789;79;21416;-68
2021/06/05 07:01:18;;;;;;;7.35;3.55;;;;;;;18.97;100.00;99232.86;1772201;80;20939;-68
2021/06/05 07:03:46;;;;;;;14.90;3.50;;;;;;;19.07;100.00;99234.70;1773170;80;21086;-67
2021/06/05 07:06:15;;;;;;;9.25;3.20;;;;;;;19.19;100.00;99234.22;1749486;81;21420;-67
2021/06/05 07:08:44;;;;;;;9.93;3.50;;;;;;;19.30;100.00;99231.98;1756844;81;20943;-70
2021/06/05 07:11:18;;;;;;;7.17;3.47;;;;;;;19.40;100.00;99223.16;1773791;81;21385;-69
2021/06/05 07:13:46;;;;;;;7.97;3.25;;;;;;;19.49;100.00;99223.65;1774241;79;21490;-68
2021/06/05 07:16:14;;;;;;;8.53;3.40;;;;;;;19.59;100.00;99220.16;1773204;79;21072;-68
2021/06/05 07:18:43;;;;;;;7.12;3.35;;;;;;;19.70;100.00;99218.37;1772768;81;20884;-68
2021/06/05 07:21:10;;;;;;;5.87;2.85;;;;;;;19.83;100.00;99212.89;1763492;79;20875;-68
2021/06/05 07:23:38;;;;;;;7.62;3.60;;;;;;;19.96;100.00;99209.25;1761886;79;20918;-68
2021/06/05 07:29:45;;;;;;;8.45;3.02;;;;;;;20.30;100.00;99207.30;1797839;79;23427;-69
2021/06/05 07:32:13;;;;;;;5.62;2.98;;;;;;;20.34;100.00;99205.78;1758400;80;20852;-68
2021/06/05 07:34:42;;;;;;;5.25;3.15;;;;;;;20.47;100.00;99211.96;1758410;81;21380;-69
2021/06/05 07:37:12;;;;;;;7.45;3.22;;;;;;;20.57;100.00;99206.11;1756653;80;20900;-69
2021/06/05 07:39:40;;;;;;;6.97;2.80;;;;;;;20.67;100.00;99204.75;1748692;81;20960;-67
2021/06/05 07:42:11;;;;;;;6.85;3.30;;;;;;;20.80;100.00;99201.49;1740754;81;21011;-68
2021/06/05 07:44:41;;;;;;;9.88;3.10;;;;;;;20.96;100.00;99198.52;1753169;81;21016;-66
2021/06/05 07:47:09;;;;;;;6.00;2.92;;;;;;;21.09;100.00;99198.33;1756665;81;21151;-69
2021/06/05 07:49:39;;;;;;;5.30;3.10;;;;;;;21.23;100.00;99199.90;1737023;81;20984;-69
2021/06/05 07:52:10;;;;;;;7.15;2.85;;;;;;;21.38;100.00;99196.97;1738822;81;21083;-69
2021/06/05 07:54:38;;;;;;;7.67;3.40;;;;;;;21.53;100.00;99184.13;1735393;81;21001;-68
2021/06/05 07:57:08;;;;;;;5.47;2.65;;;;;;;21.66;100.00;99182.56;1746102;81;21067;-68
2021/06/05 07:59:37;;;;;;;5.15;2.65;;;;;;;21.79;100.00;99185.99;1758630;81;21807;-68
2021/06/05 08:02:05;;;;;;;6.67;2.72;;;;;;;21.90;99.74;99190.34;1758226;80;20872;-68
2021/06/05 08:04:35;;;;;;;5.00;3.10;;;;;;;21.98;98.40;99184.09;1758553;80;20912;-68
2021/06/05 08:07:04;;;;;;;4.20;2.92;;;;;;;22.05;96.66;99192.73;1752345;80;20944;-69
2021/06/05 08:09:32;;;;;;;9.53;3.50;;;;;;;22.12;98.78;99189.64;1746563;80;21402;-69
2021/06/05 08:12:02;;;;;;;8.55;2.90;;;;;;;22.17;99.15;99187.58;1748722;81;21993;-69
2021/06/05 08:14:29;;;;;;;4.83;3.10;;;;;;;22.23;96.08;99190.42;1714482;81;20912;-69
2021/06/05 08:16:57;;;;;;;12.88;3.12;;;;;;;22.27;94.88;99182.15;1723381;81;21000;-68
2021/06/05 08:19:26;;;;;;;7.10;3.15;;;;;;;22.37;96.36;99186.55;1721158;83;21043;-72
2021/06/05 08:21:54;;;;;;;4.85;2.80;;;;;;;22.49;97.12;99183.68;1722509;82;21616;-62
2021/06/05 08:24:22;;;;;;;20.12;4.15;;;;;;;22.58;97.41;99184.05;1722165;82;21431;-67
2021/06/05 08:26:51;;;;;;;8.70;3.08;;;;;;;22.67;96.00;99183.15;1722262;82;21437;-68
2021/06/05 08:29:19;;;;;;;8.20;2.60;;;;;;;22.69;91.44;99180.77;1716977;83;21003;-67
2021/06/05 08:31:52;;;;;;;13.48;2.80;;;;;;;22.68;87.92;99178.16;1714509;83;20888;-67
2021/06/05 08:34:19;;;;;;;7.47;2.95;;;;;;;22.67;85.46;99173.73;1714484;83;21002;-66
2021/06/05 08:36:47;;;;;;;13.35;3.17;;;;;;;22.70;86.15;99177.13;1714474;83;21153;-66
2021/06/05 08:39:16;;;;;;;11.18;2.90;;;;;;;22.74;85.33;99173.83;1715893;83;20838;-66
2021/06/05 08:41:54;;;;;;;52.33;3.98;;;;;;;22.76;85.27;99172.78;1716537;83;21099;-66
2021/06/05 08:44:36;;;;;;;6.90;2.65;;;;;;;22.84;87.77;99171.05;1714311;83;20940;-67
2021/06/05 08:47:30;;;;;;;15.43;3.40;;;;;;;22.91;90.47;99170.62;1714311;83;26914;-66
2021/06/05 08:50:00;;;;;;;10.63;3.45;;;;;;;22.98;91.09;99161.72;1707941;83;21173;-65
2021/06/05 08:53:00;;;;;;;11.85;3.20;;;;;;;23.07;90.75;99161.20;1630641;85;21059;-67
2021/06/05 08:55:43;;;;;;;6.97;2.47;;;;;;;23.15;89.60;99162.97;1695793;84;21070;-67
2021/06/05 08:58:33;;;;;;;6.33;2.60;;;;;;;23.21;86.63;99158.62;1675920;83;20950;-66
2021/06/05 09:01:21;;;;;;;5.75;2.37;;;;;;;23.27;81.75;99152.02;1703919;83;20879;-66
2021/06/05 09:04:01;;;;;;;10.48;2.60;;;;;;;23.29;78.06;99151.45;1708365;83;21413;-69
2021/06/05 09:06:40;;;;;;;5.72;2.40;;;;;;;23.34;76.41;99156.08;1716448;82;21030;-69
2021/06/05 09:09:16;;;;;;;6.15;2.52;;;;;;;23.40;73.69;99151.69;1716596;82;21513;-67
2021/06/05 09:11:45;;;;;;;6.60;2.35;;;;;;;23.46;72.32;99158.06;1716522;82;21018;-68
2021/06/05 09:14:14;;;;;;;5.58;2.17;;;;;;;23.52;71.58;99146.92;1716517;83;21627;-68
2021/06/05 09:16:47;;;;;;;7.30;2.45;;;;;;;23.62;72.65;99145.07;1735020;80;21007;-69
2021/06/05 09:19:29;;;;;;;10.65;2.35;;;;;;;23.75;73.48;99148.31;1753221;80;21509;-67
2021/06/05 09:22:10;;;;;;;7.72;2.45;;;;;;;23.90;74.17;99143.83;1752731;81;20983;-68
2021/06/05 09:24:52;;;;;;;7.08;2.75;;;;;;;24.07;72.81;99137.41;1733641;80;21484;-68
2021/06/05 09:27:24;;;;;;;5.72;1.98;;;;;;;24.21;69.33;99137.94;1753008;80;21449;-67
2021/06/05 09:30:02;;;;;;;5.20;2.05;;;;;;;24.35;69.35;99134.80;1753469;80;21388;-69
2021/06/05 09:32:56;;;;;;;6.83;2.40;;;;;;;24.52;72.28;99132.87;1750987;80;20882;-70
2021/06/05 09:35:37;;;;;;;4.78;2.00;;;;;;;24.61;67.95;99129.62;1753046;80;21012;-67
2021/06/05 09:38:34;;;;;;;6.78;2.20;;;;;;;24.68;61.45;99132.30;1750402;80;20914;-70
2021/06/05 09:41:15;;;;;;;8.05;2.25;;;;;;;24.68;62.18;99133.66;1752631;80;20967;-70
2021/06/05 09:43:45;;;;;;;4.70;2.10;;;;;;;24.73;61.13;99130.17;1752868;80;22395;-70
2021/06/05 09:46:32;;;;;;;3.35;1.85;;;;;;;24.74;60.36;99124.69;1753165;80;20867;-70
2021/06/05 09:49:19;;;;;;;6.55;2.10;;;;;;;24.80;62.65;99116.20;1753002;80;20905;-69
2021/06/05 09:52:13;;;;;;;4.90;2.27;;;;;;;24.91;62.98;99118.67;1753011;80;21056;-70
2021/06/05 09:54:45;;;;;;;4.15;2.10;;;;;;;25.02;61.50;99114.83;1755045;79;21447;-69
2021/06/05 09:57:33;;;;;;;9.35;2.20;;;;;;;25.14;62.00;99111.83;1753648;80;21088;-69
2021/06/05 10:00:30;;;;;;;11.12;2.40;;;;;;;25.21;58.40;99108.63;1740783;80;20893;-73
2021/06/05 10:03:26;;;;;;;7.00;2.35;;;;;;;25.28;57.29;99109.08;1753173;80;20930;-73
2021/06/05 10:05:55;;;;;;;2.58;1.92;;;;;;;25.33;56.21;99113.20;1753291;80;20953;-72
2021/06/05 10:08:40;;;;;;;4.70;1.98;;;;;;;25.36;55.31;99108.08;1753248;80;21020;-73
2021/06/05 10:11:39;;;;;;;9.03;2.62;;;;;;;25.36;55.32;99107.59;1753192;80;21121;-71
2021/06/05 10:14:17;;;;;;;25.12;2.87;;;;;;;25.38;57.33;99103.44;1736785;80;21252;-71
2021/06/05 10:16:54;;;;;;;7.50;2.60;;;;;;;25.47;58.90;99096.55;1762942;80;21464;-72
2021/06/05 10:19:42;;;;;;;10.85;2.35;;;;;;;25.51;55.66;99092.19;1764680;80;21005;-71
2021/06/05 10:22:10;;;;;;;8.45;2.08;;;;;;;25.54;54.03;99093.81;1733727;80;21102;-69
2021/06/05 10:24:47;;;;;;;47.38;2.72;;;;;;;25.55;52.36;99095.09;1753712;80;21104;-68
2021/06/05 10:27:27;;;;;;;5.70;1.92;;;;;;;25.55;50.77;99091.52;1752417;80;20939;-68
2021/06/05 10:30:02;;;;;;;28.90;3.00;;;;;;;25.57;52.30;99094.98;1716850;81;20887;-71
2021/06/05 10:32:40;;;;;;;7.00;1.98;;;;;;;25.58;50.97;99087.26;1757581;79;20968;-70
2021/06/05 10:35:32;;;;;;;9.08;2.00;;;;;;;25.63;51.38;99085.97;1744719;81;20939;-70
2021/06/05 10:38:24;;;;;;;8.38;1.80;;;;;;;25.75;51.23;99080.23;1736091;81;22036;-70
2021/06/05 10:40:53;;;;;;;8.50;1.70;;;;;;;25.91;52.94;99084.95;1753651;81;21545;-69
2021/06/05 10:43:21;;;;;;;7.00;2.02;;;;;;;26.02;50.55;99081.53;1754607;80;21560;-69
2021/06/05 10:45:49;;;;;;;3.75;1.92;;;;;;;26.12;48.47;99084.44;1754505;80;20928;-69
2021/06/05 10:48:31;;;;;;;7.90;1.87;;;;;;;26.17;46.06;99086.33;1754496;80;20939;-69
2021/06/05 10:51:19;;;;;;;9.90;1.52;;;;;;;26.17;45.27;99084.50;1754789;81;21127;-69
2021/06/05 10:53:59;;;;;;;13.85;1.35;;;;;;;26.22;45.85;99080.98;1748907;79;20927;-68
2021/06/05 10:56:59;;;;;;;10.55;1.52;;;;;;;26.31;44.34;99083.51;1764170;79;21057;-70
2021/06/05 10:59:48;;;;;;;7.85;1.62;;;;;;;26.35;42.85;99080.51;1769152;79;20939;-69
2021/06/05 11:02:47;;;;;;;3.85;1.40;;;;;;;26.44;42.36;99073.57;1770160;79;20958;-69
2021/06/05 11:05:35;;;;;;;3.25;1.25;;;;;;;26.50;41.48;99076.35;1755270;80;21788;-70
2021/06/05 11:08:22;;;;;;;1.60;1.02;;;;;;;26.45;41.23;99070.38;1755108;80;20884;-70
2021/06/05 11:11:02;;;;;;;7.60;1.77;;;;;;;26.33;40.45;99072.99;1770582;79;21513;-69
2021/06/05 11:13:41;;;;;;;3.37;1.52;;;;;;;26.18;39.70;99071.36;1765082;79;21473;-70
2021/06/05 11:16:20;;;;;;;4.15;1.47;;;;;;;26.02;39.23;99066.66;1754745;80;21466;-70
2021/06/05 11:19:06;;;;;;;4.30;1.47;;;;;;;25.87;39.48;99070.41;1754585;81;20908;-70
2021/06/05 11:21:44;;;;;;;5.30;1.50;;;;;;;25.75;40.01;99072.62;1752802;80;21510;-70
2021/06/05 11:24:20;;;;;;;2.67;1.62;;;;;;;25.60;41.83;99070.46;1746719;80;20888;-70
2021/06/05 11:26:56;;;;;;;3.20;1.50;;;;;;;25.52;43.70;99065.55;1749310;81;21526;-70
2021/06/05 11:29:32;;;;;;;5.58;1.60;;;;;;;25.48;46.23;99067.22;1717719;82;21026;-69
2021/06/05 11:32:07;;;;;;;4.67;1.50;;;;;;;25.47;47.08;99072.23;1716341;82;21562;-69
2021/06/05 11:34:44;;;;;;;4.08;1.70;;;;;;;25.39;45.14;99068.72;1752759;80;20888;-68
2021/06/05 11:37:21;;;;;;;4.83;1.52;;;;;;;25.31;44.43;99073.77;1752369;80;20940;-69
2021/06/05 11:39:57;;;;;;;7.70;1.70;;;;;;;25.17;44.87;99071.13;1758764;80;20987;-69
2021/06/05 11:42:39;;;;;;;3.22;1.70;;;;;;;25.07;46.27;99061.44;1765317;80;21529;-69
2021/06/05 11:45:33;;;;;;;5.08;1.50;;;;;;;25.03;46.60;99064.80;1765374;80;21464;-69
2021/06/05 11:48:01;;;;;;;5.70;1.50;;;;;;;24.99;47.29;99057.88;1764442;80;21380;-70
2021/06/05 11:50:32;;;;;;;4.87;1.22;;;;;;;24.96;46.64;99059.88;1755188;80;20949;-69
2021/06/05 11:53:31;;;;;;;3.27;1.57;;;;;;;24.97;46.66;99054.38;1754069;81;21173;-69
2021/06/05 11:56:07;;;;;;;8.53;1.50;;;;;;;25.04;47.23;99054.86;1743716;80;21828;-69
2021/06/05 11:58:36;;;;;;;1.98;1.30;;;;;;;25.15;47.20;99050.13;1754712;80;21075;-69
2021/06/05 12:01:24;;;;;;;3.25;1.40;;;;;;;25.31;46.99;99046.28;1765331;79;21411;-69
2021/06/05 12:04:02;;;;;;;10.53;1.57;;;;;;;25.47;48.87;99051.50;1765220;80;20944;-69
2021/06/05 12:06:36;;;;;;;4.05;1.50;;;;;;;25.59;46.60;99045.28;1765198;80;20971;-70
2021/06/05 12:09:23;;;;;;;4.05;1.40;;;;;;;25.65;45.06;99050.27;1763609;80;21419;-69
2021/06/05 12:11:59;;;;;;;5.67;1.55;;;;;;;25.61;44.47;99045.18;1764606;80;21119;-69
2021/06/05 12:17:34;;;;;;;4.10;1.70;;;;;;;25.56;44.15;99039.23;1765317;81;20899;-69
2021/06/05 12:20:31;;;;;;;7.45;2.00;;;;;;;25.63;46.04;99040.05;1768745;79;21541;-69
2021/06/05 12:23:02;;;;;;;2.02;1.55;;;;;;;25.80;47.95;99032.63;1767294;79;20923;-67